sensor_id;sensor_type;location;lat;lon;timestamp;temperature;humidity
23748;DHT22;12054;53.662;10.126;2023-07-30T00:00:39;18.80;99.90
23748;DHT22;12054;53.662;10.126;2023-07-30T00:03:04;18.80;99.90
23748;DHT22;12054;53.662;10.126;2023-07-30T00:05:30;18.70;99.90
23748;DHT22;12054;53.662;10.126;2023-07-30T00:07:55;18.70;99.90
23748;DHT22;12054;53.662;10.126;2023-07-30T00:10:21;18.70;99.90
23748;DHT22;12054;53.662;10.126;2023-07-30T00:12:47;18.70;99.90
23748;DHT22;12054;53.662;10.126;2023-07-30T00:15:12;18.70;99.90
23748;DHT22;12054;53.662;10.126;2023-07-30T00:17:38;18.70;99.90
23748;DHT22;12054;53.662;10.126;2023-07-30T00:20:06;18.70;99.90
23748;DHT22;12054;53.662;10.126;2023-07-30T00:22:32;18.60;99.90
23748;DHT22;12054;53.662;10.126;2023-07-30T00:24:57;18.60;99.90
23748;DHT22;12054;53.662;10.126;2023-07-30T00:27:23;18.60;99.90
23748;DHT22;12054;53.662;10.126;2023-07-30T00:29:48;18.60;99.90
23748;DHT22;12054;53.662;10.126;2023-07-30T00:32:13;18.60;99.90
23748;DHT22;12054;53.662;10.126;2023-07-30T00:34:41;18.60;99.90
23748;DHT22;12054;53.662;10.126;2023-07-30T00:37:06;18.60;99.90
23748;DHT22;12054;53.662;10.126;2023-07-30T00:39:32;18.50;99.90
23748;DHT22;12054;53.662;10.126;2023-07-30T00:41:57;18.50;99.90
23748;DHT22;12054;53.662;10.126;2023-07-30T00:44:23;18.50;99.90
23748;DHT22;12054;53.662;10.126;2023-07-30T00:46:49;18.50;99.90
23748;DHT22;12054;53.662;10.126;2023-07-30T00:49:15;18.50;99.90
23748;DHT22;12054;53.662;10.126;2023-07-30T00:51:41;18.40;99.90
23748;DHT22;12054;53.662;10.126;2023-07-30T00:54:07;18.50;99.90
23748;DHT22;12054;53.662;10.126;2023-07-30T00:56:33;18.40;99.90
23748;DHT22;12054;53.662;10.126;2023-07-30T00:58:59;18.40;99.90
23748;DHT22;12054;53.662;10.126;2023-07-30T01:01:25;18.40;99.90
23748;DHT22;12054;53.662;10.126;2023-07-30T01:03:50;18.30;99.90
23748;DHT22;12054;53.662;10.126;2023-07-30T01:06:16;18.30;99.90
23748;DHT22;12054;53.662;10.126;2023-07-30T01:08:41;18.30;99.90
23748;DHT22;12054;53.662;10.126;2023-07-30T01:11:07;18.30;99.90
23748;DHT22;12054;53.662;10.126;2023-07-30T01:13:34;18.20;99.90
23748;DHT22;12054;53.662;10.126;2023-07-30T01:16:00;18.30;99.90
23748;DHT22;12054;53.662;10.126;2023-07-30T01:18:26;18.20;99.90
23748;DHT22;12054;53.662;10.126;2023-07-30T01:21:01;18.20;99.90
23748;DHT22;12054;53.662;10.126;2023-07-30T01:23:26;18.20;99.90
23748;DHT22;12054;53.662;10.126;2023-07-30T01:26:22;18.20;99.90
23748;DHT22;12054;53.662;10.126;2023-07-30T01:28:51;18.20;99.90
23748;DHT22;12054;53.662;10.126;2023-07-30T01:31:20;18.20;99.90
23748;DHT22;12054;53.662;10.126;2023-07-30T01:33:48;18.20;99.90
23748;DHT22;12054;53.662;10.126;2023-07-30T01:36:15;18.20;99.90
23748;DHT22;12054;53.662;10.126;2023-07-30T01:38:42;18.20;99.90
23748;DHT22;12054;53.662;10.126;2023-07-30T01:41:08;18.20;99.90
23748;DHT22;12054;53.662;10.126;2023-07-30T01:43:34;18.20;99.90
23748;DHT22;12054;53.662;10.126;2023-07-30T01:46:00;18.20;99.90
23748;DHT22;12054;53.662;10.126;2023-07-30T01:48:25;18.20;99.90
23748;DHT22;12054;53.662;10.126;2023-07-30T01:50:51;18.10;99.90
23748;DHT22;12054;53.662;10.126;2023-07-30T01:53:16;18.10;99.90
23748;DHT22;12054;53.662;10.126;2023-07-30T01:55:42;18.10;99.90
23748;DHT22;12054;53.662;10.126;2023-07-30T01:58:12;18.10;99.90
23748;DHT22;12054;53.662;10.126;2023-07-30T02:00:38;18.10;99.90
23748;DHT22;12054;53.662;10.126;2023-07-30T02:03:04;18.10;99.90
23748;DHT22;12054;53.662;10.126;2023-07-30T02:05:29;18.10;99.90
23748;DHT22;12054;53.662;10.126;2023-07-30T02:07:55;18.10;99.90
23748;DHT22;12054;53.662;10.126;2023-07-30T02:10:20;18.10;99.90
23748;DHT22;12054;53.662;10.126;2023-07-30T02:12:46;18.10;99.90
23748;DHT22;12054;53.662;10.126;2023-07-30T02:15:12;18.00;99.90
23748;DHT22;12054;53.662;10.126;2023-07-30T02:17:37;18.00;99.90
23748;DHT22;12054;53.662;10.126;2023-07-30T02:20:03;18.00;99.90
23748;DHT22;12054;53.662;10.126;2023-07-30T02:22:28;18.00;99.90
23748;DHT22;12054;53.662;10.126;2023-07-30T02:24:54;18.00;99.90
23748;DHT22;12054;53.662;10.126;2023-07-30T02:27:22;18.00;99.90
23748;DHT22;12054;53.662;10.126;2023-07-30T02:29:48;18.00;99.90
23748;DHT22;12054;53.662;10.126;2023-07-30T02:32:13;18.00;99.90
23748;DHT22;12054;53.662;10.126;2023-07-30T02:34:39;18.00;99.90
23748;DHT22;12054;53.662;10.126;2023-07-30T02:37:04;18.00;99.90
23748;DHT22;12054;53.662;10.126;2023-07-30T02:39:30;17.90;99.90
23748;DHT22;12054;53.662;10.126;2023-07-30T02:41:55;17.90;99.90
23748;DHT22;12054;53.662;10.126;2023-07-30T02:44:21;18.00;99.90
23748;DHT22;12054;53.662;10.126;2023-07-30T02:46:46;18.00;99.90
23748;DHT22;12054;53.662;10.126;2023-07-30T02:49:11;18.00;99.90
23748;DHT22;12054;53.662;10.126;2023-07-30T02:51:37;18.00;99.90
23748;DHT22;12054;53.662;10.126;2023-07-30T02:54:07;17.90;99.90
23748;DHT22;12054;53.662;10.126;2023-07-30T02:56:33;17.90;99.90
23748;DHT22;12054;53.662;10.126;2023-07-30T02:58:59;17.90;99.90
23748;DHT22;12054;53.662;10.126;2023-07-30T03:01:24;17.90;99.90
23748;DHT22;12054;53.662;10.126;2023-07-30T03:03:50;17.90;99.90
23748;DHT22;12054;53.662;10.126;2023-07-30T03:06:15;17.90;99.90
23748;DHT22;12054;53.662;10.126;2023-07-30T03:08:43;17.90;99.90
23748;DHT22;12054;53.662;10.126;2023-07-30T03:11:08;17.90;99.90
23748;DHT22;12054;53.662;10.126;2023-07-30T03:13:34;17.90;99.90
23748;DHT22;12054;53.662;10.126;2023-07-30T03:15:59;17.90;99.90
23748;DHT22;12054;53.662;10.126;2023-07-30T03:18:25;17.80;99.90
23748;DHT22;12054;53.662;10.126;2023-07-30T03:20:51;17.80;99.90
23748;DHT22;12054;53.662;10.126;2023-07-30T03:23:16;17.80;99.90
23748;DHT22;12054;53.662;10.126;2023-07-30T03:25:42;17.80;99.90
23748;DHT22;12054;53.662;10.126;2023-07-30T03:28:07;17.80;99.90
23748;DHT22;12054;53.662;10.126;2023-07-30T03:30:33;17.80;99.90
23748;DHT22;12054;53.662;10.126;2023-07-30T03:32:58;17.80;99.90
23748;DHT22;12054;53.662;10.126;2023-07-30T03:35:24;17.80;99.90
23748;DHT22;12054;53.662;10.126;2023-07-30T03:37:49;17.80;99.90
23748;DHT22;12054;53.662;10.126;2023-07-30T03:40:15;17.80;99.90
23748;DHT22;12054;53.662;10.126;2023-07-30T03:42:40;17.70;99.90
23748;DHT22;12054;53.662;10.126;2023-07-30T03:45:06;17.70;99.90
23748;DHT22;12054;53.662;10.126;2023-07-30T03:47:32;17.70;99.90
23748;DHT22;12054;53.662;10.126;2023-07-30T03:49:57;17.70;99.90
23748;DHT22;12054;53.662;10.126;2023-07-30T03:52:22;17.70;99.90
23748;DHT22;12054;53.662;10.126;2023-07-30T03:54:48;17.70;99.90
23748;DHT22;12054;53.662;10.126;2023-07-30T03:57:13;17.70;99.90
23748;DHT22;12054;53.662;10.126;2023-07-30T03:59:39;17.70;99.90
23748;DHT22;12054;53.662;10.126;2023-07-30T04:02:04;17.60;99.90
23748;DHT22;12054;53.662;10.126;2023-07-30T04:04:30;17.60;99.90
23748;DHT22;12054;53.662;10.126;2023-07-30T04:06:55;17.60;99.90
23748;DHT22;12054;53.662;10.126;2023-07-30T04:09:21;17.60;99.90
23748;DHT22;12054;53.662;10.126;2023-07-30T04:11:46;17.60;99.90
23748;DHT22;12054;53.662;10.126;2023-07-30T04:14:12;17.60;99.90
23748;DHT22;12054;53.662;10.126;2023-07-30T04:16:37;17.60;99.90
23748;DHT22;12054;53.662;10.126;2023-07-30T04:19:03;17.60;99.90
23748;DHT22;12054;53.662;10.126;2023-07-30T04:21:28;17.60;99.90
23748;DHT22;12054;53.662;10.126;2023-07-30T04:23:54;17.60;99.90
23748;DHT22;12054;53.662;10.126;2023-07-30T04:26:19;17.60;99.90
23748;DHT22;12054;53.662;10.126;2023-07-30T04:28:45;17.60;99.90
23748;DHT22;12054;53.662;10.126;2023-07-30T04:31:10;17.60;99.90
23748;DHT22;12054;53.662;10.126;2023-07-30T04:33:36;17.60;99.90
23748;DHT22;12054;53.662;10.126;2023-07-30T04:36:01;17.60;99.90
23748;DHT22;12054;53.662;10.126;2023-07-30T04:38:27;17.60;99.90
23748;DHT22;12054;53.662;10.126;2023-07-30T04:40:53;17.60;99.90
23748;DHT22;12054;53.662;10.126;2023-07-30T04:43:19;17.60;99.90
23748;DHT22;12054;53.662;10.126;2023-07-30T04:45:45;17.60;99.90
23748;DHT22;12054;53.662;10.126;2023-07-30T04:48:11;17.60;99.90
23748;DHT22;12054;53.662;10.126;2023-07-30T04:50:37;17.60;99.90
23748;DHT22;12054;53.662;10.126;2023-07-30T04:53:04;17.70;99.90
23748;DHT22;12054;53.662;10.126;2023-07-30T04:55:30;17.60;99.90
23748;DHT22;12054;53.662;10.126;2023-07-30T04:57:55;17.70;99.90
23748;DHT22;12054;53.662;10.126;2023-07-30T05:00:21;17.70;99.90
23748;DHT22;12054;53.662;10.126;2023-07-30T05:02:46;17.70;99.90
23748;DHT22;12054;53.662;10.126;2023-07-30T05:05:11;17.70;99.90
23748;DHT22;12054;53.662;10.126;2023-07-30T05:07:38;17.70;99.90
23748;DHT22;12054;53.662;10.126;2023-07-30T05:10:04;17.70;99.90
23748;DHT22;12054;53.662;10.126;2023-07-30T05:12:32;17.70;99.90
23748;DHT22;12054;53.662;10.126;2023-07-30T05:14:57;17.70;99.90
23748;DHT22;12054;53.662;10.126;2023-07-30T05:17:23;17.70;99.90
23748;DHT22;12054;53.662;10.126;2023-07-30T05:19:48;17.70;99.90
23748;DHT22;12054;53.662;10.126;2023-07-30T05:22:14;17.70;99.90
23748;DHT22;12054;53.662;10.126;2023-07-30T05:24:39;17.70;99.90
23748;DHT22;12054;53.662;10.126;2023-07-30T05:27:05;17.80;99.90
23748;DHT22;12054;53.662;10.126;2023-07-30T05:29:30;17.80;99.90
23748;DHT22;12054;53.662;10.126;2023-07-30T05:31:56;17.80;99.90
23748;DHT22;12054;53.662;10.126;2023-07-30T05:34:21;17.80;99.90
23748;DHT22;12054;53.662;10.126;2023-07-30T05:36:47;17.80;99.90
23748;DHT22;12054;53.662;10.126;2023-07-30T05:39:12;17.80;99.90
23748;DHT22;12054;53.662;10.126;2023-07-30T05:41:38;17.80;99.90
23748;DHT22;12054;53.662;10.126;2023-07-30T05:44:03;17.80;99.90
23748;DHT22;12054;53.662;10.126;2023-07-30T05:46:29;17.80;99.90
23748;DHT22;12054;53.662;10.126;2023-07-30T05:48:54;17.90;99.90
23748;DHT22;12054;53.662;10.126;2023-07-30T05:51:20;17.90;99.90
23748;DHT22;12054;53.662;10.126;2023-07-30T05:53:45;17.80;99.90
23748;DHT22;12054;53.662;10.126;2023-07-30T05:56:11;17.80;99.90
23748;DHT22;12054;53.662;10.126;2023-07-30T05:58:38;17.90;99.90
23748;DHT22;12054;53.662;10.126;2023-07-30T06:01:04;17.80;99.90
23748;DHT22;12054;53.662;10.126;2023-07-30T06:03:29;17.90;99.90
23748;DHT22;12054;53.662;10.126;2023-07-30T06:05:55;17.90;99.90
23748;DHT22;12054;53.662;10.126;2023-07-30T06:08:20;17.90;99.90
23748;DHT22;12054;53.662;10.126;2023-07-30T06:10:46;17.90;99.90
23748;DHT22;12054;53.662;10.126;2023-07-30T06:13:12;18.00;99.90
23748;DHT22;12054;53.662;10.126;2023-07-30T06:15:38;17.90;99.90
23748;DHT22;12054;53.662;10.126;2023-07-30T06:18:03;17.90;99.90
23748;DHT22;12054;53.662;10.126;2023-07-30T06:20:29;18.00;99.90
23748;DHT22;12054;53.662;10.126;2023-07-30T06:22:55;18.00;99.90
23748;DHT22;12054;53.662;10.126;2023-07-30T06:25:21;18.00;99.90
23748;DHT22;12054;53.662;10.126;2023-07-30T06:27:46;18.00;99.90
23748;DHT22;12054;53.662;10.126;2023-07-30T06:30:12;18.10;99.90
23748;DHT22;12054;53.662;10.126;2023-07-30T06:32:37;18.00;99.90
23748;DHT22;12054;53.662;10.126;2023-07-30T06:35:03;18.00;99.90
23748;DHT22;12054;53.662;10.126;2023-07-30T06:37:29;18.10;99.90
23748;DHT22;12054;53.662;10.126;2023-07-30T06:39:54;18.10;99.90
23748;DHT22;12054;53.662;10.126;2023-07-30T06:42:20;18.10;99.90
23748;DHT22;12054;53.662;10.126;2023-07-30T06:44:45;18.10;99.90
23748;DHT22;12054;53.662;10.126;2023-07-30T06:47:11;18.10;99.90
23748;DHT22;12054;53.662;10.126;2023-07-30T06:49:36;18.20;99.90
23748;DHT22;12054;53.662;10.126;2023-07-30T06:52:02;18.20;99.90
23748;DHT22;12054;53.662;10.126;2023-07-30T06:54:29;18.20;99.90
23748;DHT22;12054;53.662;10.126;2023-07-30T06:56:55;18.20;99.90
23748;DHT22;12054;53.662;10.126;2023-07-30T06:59:20;18.30;99.90
23748;DHT22;12054;53.662;10.126;2023-07-30T07:01:46;18.30;99.90
23748;DHT22;12054;53.662;10.126;2023-07-30T07:04:11;18.30;99.90
23748;DHT22;12054;53.662;10.126;2023-07-30T07:06:37;18.40;99.90
23748;DHT22;12054;53.662;10.126;2023-07-30T07:09:02;18.40;99.90
23748;DHT22;12054;53.662;10.126;2023-07-30T07:11:28;18.50;99.90
23748;DHT22;12054;53.662;10.126;2023-07-30T07:13:53;18.50;99.90
23748;DHT22;12054;53.662;10.126;2023-07-30T07:16:19;18.50;99.90
23748;DHT22;12054;53.662;10.126;2023-07-30T07:18:44;18.60;99.90
23748;DHT22;12054;53.662;10.126;2023-07-30T07:21:10;18.60;99.90
23748;DHT22;12054;53.662;10.126;2023-07-30T07:23:36;18.60;99.90
23748;DHT22;12054;53.662;10.126;2023-07-30T07:26:01;18.70;99.90
23748;DHT22;12054;53.662;10.126;2023-07-30T07:28:27;18.70;99.90
23748;DHT22;12054;53.662;10.126;2023-07-30T07:30:52;18.80;99.90
23748;DHT22;12054;53.662;10.126;2023-07-30T07:33:19;18.80;99.90
23748;DHT22;12054;53.662;10.126;2023-07-30T07:35:45;18.90;99.90
23748;DHT22;12054;53.662;10.126;2023-07-30T07:38:11;18.90;99.90
23748;DHT22;12054;53.662;10.126;2023-07-30T07:40:39;19.00;99.90
23748;DHT22;12054;53.662;10.126;2023-07-30T07:43:06;19.00;99.90
23748;DHT22;12054;53.662;10.126;2023-07-30T07:45:32;19.10;99.90
23748;DHT22;12054;53.662;10.126;2023-07-30T07:47:57;19.10;99.90
23748;DHT22;12054;53.662;10.126;2023-07-30T07:50:23;19.20;99.90
23748;DHT22;12054;53.662;10.126;2023-07-30T07:52:48;19.30;99.90
23748;DHT22;12054;53.662;10.126;2023-07-30T07:55:14;19.30;99.90
23748;DHT22;12054;53.662;10.126;2023-07-30T07:57:39;19.60;99.90
23748;DHT22;12054;53.662;10.126;2023-07-30T08:00:06;19.60;99.90
23748;DHT22;12054;53.662;10.126;2023-07-30T08:02:31;19.70;99.90
23748;DHT22;12054;53.662;10.126;2023-07-30T08:04:57;19.90;99.90
23748;DHT22;12054;53.662;10.126;2023-07-30T08:07:24;20.00;99.90
23748;DHT22;12054;53.662;10.126;2023-07-30T08:09:49;20.10;99.90
23748;DHT22;12054;53.662;10.126;2023-07-30T08:12:17;20.20;99.90
23748;DHT22;12054;53.662;10.126;2023-07-30T08:14:42;20.40;99.90
23748;DHT22;12054;53.662;10.126;2023-07-30T08:17:08;20.60;99.90
23748;DHT22;12054;53.662;10.126;2023-07-30T08:19:33;20.70;99.90
23748;DHT22;12054;53.662;10.126;2023-07-30T08:21:59;20.80;99.90
23748;DHT22;12054;53.662;10.126;2023-07-30T08:24:24;20.90;99.90
23748;DHT22;12054;53.662;10.126;2023-07-30T08:26:50;21.00;99.90
23748;DHT22;12054;53.662;10.126;2023-07-30T08:29:15;21.20;99.90
23748;DHT22;12054;53.662;10.126;2023-07-30T08:31:41;21.30;99.90
23748;DHT22;12054;53.662;10.126;2023-07-30T08:34:07;21.40;99.90
23748;DHT22;12054;53.662;10.126;2023-07-30T08:36:32;21.50;99.90
23748;DHT22;12054;53.662;10.126;2023-07-30T08:38:58;21.60;99.90
23748;DHT22;12054;53.662;10.126;2023-07-30T08:41:24;21.70;99.90
23748;DHT22;12054;53.662;10.126;2023-07-30T08:43:50;21.80;99.90
23748;DHT22;12054;53.662;10.126;2023-07-30T08:46:17;21.90;99.90
23748;DHT22;12054;53.662;10.126;2023-07-30T08:48:43;22.00;99.90
23748;DHT22;12054;53.662;10.126;2023-07-30T08:51:08;22.00;99.90
23748;DHT22;12054;53.662;10.126;2023-07-30T08:53:35;22.10;99.90
23748;DHT22;12054;53.662;10.126;2023-07-30T08:56:01;22.10;99.90
23748;DHT22;12054;53.662;10.126;2023-07-30T08:58:28;22.20;99.90
23748;DHT22;12054;53.662;10.126;2023-07-30T09:00:55;22.40;99.90
23748;DHT22;12054;53.662;10.126;2023-07-30T09:03:24;22.50;99.90
23748;DHT22;12054;53.662;10.126;2023-07-30T09:05:52;22.60;99.90
23748;DHT22;12054;53.662;10.126;2023-07-30T09:08:18;22.60;99.90
23748;DHT22;12054;53.662;10.126;2023-07-30T09:10:43;22.60;99.90
23748;DHT22;12054;53.662;10.126;2023-07-30T09:13:09;22.70;99.90
23748;DHT22;12054;53.662;10.126;2023-07-30T09:15:36;22.60;99.90
23748;DHT22;12054;53.662;10.126;2023-07-30T09:18:03;22.70;99.90
23748;DHT22;12054;53.662;10.126;2023-07-30T09:20:37;22.70;99.90
23748;DHT22;12054;53.662;10.126;2023-07-30T09:23:03;22.60;99.90
23748;DHT22;12054;53.662;10.126;2023-07-30T09:25:28;22.60;99.90
23748;DHT22;12054;53.662;10.126;2023-07-30T09:27:54;22.50;99.90
23748;DHT22;12054;53.662;10.126;2023-07-30T09:30:24;22.50;99.90
23748;DHT22;12054;53.662;10.126;2023-07-30T09:32:54;22.50;99.90
23748;DHT22;12054;53.662;10.126;2023-07-30T09:35:20;22.50;99.90
23748;DHT22;12054;53.662;10.126;2023-07-30T09:37:46;22.60;99.90
23748;DHT22;12054;53.662;10.126;2023-07-30T09:40:13;22.50;99.90
23748;DHT22;12054;53.662;10.126;2023-07-30T09:42:44;22.50;99.90
23748;DHT22;12054;53.662;10.126;2023-07-30T09:45:24;22.50;99.90
23748;DHT22;12054;53.662;10.126;2023-07-30T09:47:51;22.60;99.90
23748;DHT22;12054;53.662;10.126;2023-07-30T09:50:17;22.60;99.90
23748;DHT22;12054;53.662;10.126;2023-07-30T09:52:43;22.50;99.90
23748;DHT22;12054;53.662;10.126;2023-07-30T09:55:09;22.50;99.90
23748;DHT22;12054;53.662;10.126;2023-07-30T09:57:36;22.50;99.90
23748;DHT22;12054;53.662;10.126;2023-07-30T10:00:03;22.50;99.90
23748;DHT22;12054;53.662;10.126;2023-07-30T10:02:32;22.50;99.90
23748;DHT22;12054;53.662;10.126;2023-07-30T10:04:59;22.50;99.90
23748;DHT22;12054;53.662;10.126;2023-07-30T10:07:27;22.50;99.90
23748;DHT22;12054;53.662;10.126;2023-07-30T10:09:58;22.40;99.90
23748;DHT22;12054;53.662;10.126;2023-07-30T10:12:29;22.40;99.90
23748;DHT22;12054;53.662;10.126;2023-07-30T10:14:56;22.40;99.90
23748;DHT22;12054;53.662;10.126;2023-07-30T10:17:22;22.30;99.90
23748;DHT22;12054;53.662;10.126;2023-07-30T10:19:49;22.30;99.90
23748;DHT22;12054;53.662;10.126;2023-07-30T10:24:59;22.40;99.90
23748;DHT22;12054;53.662;10.126;2023-07-30T10:27:27;22.40;99.90
23748;DHT22;12054;53.662;10.126;2023-07-30T10:30:16;22.40;99.90
23748;DHT22;12054;53.662;10.126;2023-07-30T10:33:01;22.40;99.90
23748;DHT22;12054;53.662;10.126;2023-07-30T10:35:38;22.40;99.90
23748;DHT22;12054;53.662;10.126;2023-07-30T10:41:18;22.40;99.90
23748;DHT22;12054;53.662;10.126;2023-07-30T10:43:48;22.40;99.90
23748;DHT22;12054;53.662;10.126;2023-07-30T10:46:15;22.40;99.90
23748;DHT22;12054;53.662;10.126;2023-07-30T10:48:43;22.40;99.90
23748;DHT22;12054;53.662;10.126;2023-07-30T10:51:10;22.30;99.90
23748;DHT22;12054;53.662;10.126;2023-07-30T10:53:36;22.30;99.90
23748;DHT22;12054;53.662;10.126;2023-07-30T10:56:09;22.30;99.90
23748;DHT22;12054;53.662;10.126;2023-07-30T10:58:35;22.30;99.90
23748;DHT22;12054;53.662;10.126;2023-07-30T11:01:03;22.40;99.90
23748;DHT22;12054;53.662;10.126;2023-07-30T11:03:29;22.30;99.90
23748;DHT22;12054;53.662;10.126;2023-07-30T11:05:56;22.40;99.90
23748;DHT22;12054;53.662;10.126;2023-07-30T11:08:40;22.30;99.90
23748;DHT22;12054;53.662;10.126;2023-07-30T11:11:07;22.40;99.90
23748;DHT22;12054;53.662;10.126;2023-07-30T11:13:41;22.40;99.90
23748;DHT22;12054;53.662;10.126;2023-07-30T11:16:10;22.50;99.90
23748;DHT22;12054;53.662;10.126;2023-07-30T11:18:37;22.50;99.90
23748;DHT22;12054;53.662;10.126;2023-07-30T11:21:14;22.50;99.90
23748;DHT22;12054;53.662;10.126;2023-07-30T11:23:41;22.60;99.90
23748;DHT22;12054;53.662;10.126;2023-07-30T11:26:08;22.60;99.90
23748;DHT22;12054;53.662;10.126;2023-07-30T11:28:36;22.60;99.90
23748;DHT22;12054;53.662;10.126;2023-07-30T11:31:16;22.70;99.90
23748;DHT22;12054;53.662;10.126;2023-07-30T11:33:45;22.70;99.90
23748;DHT22;12054;53.662;10.126;2023-07-30T11:36:14;22.80;99.90
23748;DHT22;12054;53.662;10.126;2023-07-30T11:38:40;22.80;99.90
23748;DHT22;12054;53.662;10.126;2023-07-30T11:41:07;22.80;99.90
23748;DHT22;12054;53.662;10.126;2023-07-30T11:43:40;22.80;99.90
23748;DHT22;12054;53.662;10.126;2023-07-30T11:46:08;22.80;99.90
23748;DHT22;12054;53.662;10.126;2023-07-30T11:48:33;22.80;99.90
23748;DHT22;12054;53.662;10.126;2023-07-30T11:50:59;22.90;99.90
23748;DHT22;12054;53.662;10.126;2023-07-30T11:53:47;22.90;99.90
23748;DHT22;12054;53.662;10.126;2023-07-30T11:56:16;22.90;99.90
23748;DHT22;12054;53.662;10.126;2023-07-30T11:58:42;23.00;99.90
23748;DHT22;12054;53.662;10.126;2023-07-30T12:01:08;23.10;99.90
23748;DHT22;12054;53.662;10.126;2023-07-30T12:03:33;23.20;99.90
23748;DHT22;12054;53.662;10.126;2023-07-30T12:06:04;23.20;99.90
23748;DHT22;12054;53.662;10.126;2023-07-30T12:08:31;23.20;99.90
23748;DHT22;12054;53.662;10.126;2023-07-30T12:11:06;23.20;99.90
23748;DHT22;12054;53.662;10.126;2023-07-30T12:13:32;23.20;99.90
23748;DHT22;12054;53.662;10.126;2023-07-30T12:15:58;23.30;99.90
23748;DHT22;12054;53.662;10.126;2023-07-30T12:18:24;23.30;99.90
23748;DHT22;12054;53.662;10.126;2023-07-30T12:20:51;23.40;99.90
23748;DHT22;12054;53.662;10.126;2023-07-30T12:23:17;23.40;99.90
23748;DHT22;12054;53.662;10.126;2023-07-30T12:25:43;23.50;99.90
23748;DHT22;12054;53.662;10.126;2023-07-30T12:28:08;23.60;99.90
23748;DHT22;12054;53.662;10.126;2023-07-30T12:30:34;23.60;99.90
23748;DHT22;12054;53.662;10.126;2023-07-30T12:33:01;23.60;99.90
23748;DHT22;12054;53.662;10.126;2023-07-30T12:35:26;23.60;99.90
23748;DHT22;12054;53.662;10.126;2023-07-30T12:37:52;23.70;99.90
23748;DHT22;12054;53.662;10.126;2023-07-30T12:40:17;23.80;99.90
23748;DHT22;12054;53.662;10.126;2023-07-30T12:42:43;23.90;99.90
23748;DHT22;12054;53.662;10.126;2023-07-30T12:45:09;24.00;99.90
23748;DHT22;12054;53.662;10.126;2023-07-30T12:47:34;24.00;99.90
23748;DHT22;12054;53.662;10.126;2023-07-30T12:50:02;24.00;99.90
23748;DHT22;12054;53.662;10.126;2023-07-30T12:52:28;24.00;99.90
23748;DHT22;12054;53.662;10.126;2023-07-30T12:54:53;24.00;99.90
23748;DHT22;12054;53.662;10.126;2023-07-30T12:57:19;23.90;99.90
23748;DHT22;12054;53.662;10.126;2023-07-30T12:59:44;23.90;99.90
23748;DHT22;12054;53.662;10.126;2023-07-30T13:02:10;23.80;99.90
23748;DHT22;12054;53.662;10.126;2023-07-30T13:04:35;23.80;99.90
23748;DHT22;12054;53.662;10.126;2023-07-30T13:07:00;23.70;99.90
23748;DHT22;12054;53.662;10.126;2023-07-30T13:09:28;23.70;99.90
23748;DHT22;12054;53.662;10.126;2023-07-30T13:11:54;23.70;99.90
23748;DHT22;12054;53.662;10.126;2023-07-30T13:14:19;23.70;99.90
23748;DHT22;12054;53.662;10.126;2023-07-30T13:16:45;23.70;99.90
23748;DHT22;12054;53.662;10.126;2023-07-30T13:19:10;23.60;99.90
23748;DHT22;12054;53.662;10.126;2023-07-30T13:24:02;23.50;99.90
23748;DHT22;12054;53.662;10.126;2023-07-30T13:26:27;23.40;99.90
23748;DHT22;12054;53.662;10.126;2023-07-30T13:28:53;23.30;99.90
23748;DHT22;12054;53.662;10.126;2023-07-30T13:31:18;23.20;99.90
23748;DHT22;12054;53.662;10.126;2023-07-30T13:33:44;22.90;99.90
23748;DHT22;12054;53.662;10.126;2023-07-30T13:36:12;22.60;99.90
23748;DHT22;12054;53.662;10.126;2023-07-30T13:38:38;22.40;99.90
23748;DHT22;12054;53.662;10.126;2023-07-30T13:41:05;22.10;99.90
23748;DHT22;12054;53.662;10.126;2023-07-30T13:43:31;21.90;99.90
23748;DHT22;12054;53.662;10.126;2023-07-30T13:45:56;21.80;99.90
23748;DHT22;12054;53.662;10.126;2023-07-30T13:48:23;21.60;99.90
23748;DHT22;12054;53.662;10.126;2023-07-30T13:50:49;21.60;99.90
23748;DHT22;12054;53.662;10.126;2023-07-30T13:53:15;21.50;99.90
23748;DHT22;12054;53.662;10.126;2023-07-30T13:55:40;21.50;99.90
23748;DHT22;12054;53.662;10.126;2023-07-30T13:58:06;21.50;99.90
23748;DHT22;12054;53.662;10.126;2023-07-30T14:00:31;21.50;99.90
23748;DHT22;12054;53.662;10.126;2023-07-30T14:02:57;21.50;99.90
23748;DHT22;12054;53.662;10.126;2023-07-30T14:05:22;21.50;99.90
23748;DHT22;12054;53.662;10.126;2023-07-30T14:07:48;21.40;99.90
23748;DHT22;12054;53.662;10.126;2023-07-30T14:10:16;21.40;99.90
23748;DHT22;12054;53.662;10.126;2023-07-30T14:12:41;21.40;99.90
23748;DHT22;12054;53.662;10.126;2023-07-30T14:15:07;21.40;99.90
23748;DHT22;12054;53.662;10.126;2023-07-30T14:17:33;21.40;99.90
23748;DHT22;12054;53.662;10.126;2023-07-30T14:19:59;21.30;99.90
23748;DHT22;12054;53.662;10.126;2023-07-30T14:22:24;21.20;99.90
23748;DHT22;12054;53.662;10.126;2023-07-30T14:24:49;21.10;99.90
23748;DHT22;12054;53.662;10.126;2023-07-30T14:27:15;21.10;99.90
23748;DHT22;12054;53.662;10.126;2023-07-30T14:29:40;21.10;99.90
23748;DHT22;12054;53.662;10.126;2023-07-30T14:32:06;21.10;99.90
23748;DHT22;12054;53.662;10.126;2023-07-30T14:34:31;21.20;99.90
23748;DHT22;12054;53.662;10.126;2023-07-30T14:36:57;21.20;99.90
23748;DHT22;12054;53.662;10.126;2023-07-30T14:39:23;21.20;99.90
23748;DHT22;12054;53.662;10.126;2023-07-30T14:41:48;21.20;99.90
23748;DHT22;12054;53.662;10.126;2023-07-30T14:44:14;21.20;99.90
23748;DHT22;12054;53.662;10.126;2023-07-30T14:46:39;21.20;99.90
23748;DHT22;12054;53.662;10.126;2023-07-30T14:49:05;21.30;99.90
23748;DHT22;12054;53.662;10.126;2023-07-30T14:51:31;21.30;99.90
23748;DHT22;12054;53.662;10.126;2023-07-30T14:53:57;21.20;99.90
23748;DHT22;12054;53.662;10.126;2023-07-30T14:56:22;21.20;99.90
23748;DHT22;12054;53.662;10.126;2023-07-30T14:58:48;21.10;99.90
23748;DHT22;12054;53.662;10.126;2023-07-30T15:01:13;21.10;99.90
23748;DHT22;12054;53.662;10.126;2023-07-30T15:03:39;21.10;99.90
23748;DHT22;12054;53.662;10.126;2023-07-30T15:06:04;21.10;99.90
23748;DHT22;12054;53.662;10.126;2023-07-30T15:08:30;21.10;99.90
23748;DHT22;12054;53.662;10.126;2023-07-30T15:10:57;21.10;99.90
23748;DHT22;12054;53.662;10.126;2023-07-30T15:13:22;21.10;99.90
23748;DHT22;12054;53.662;10.126;2023-07-30T15:15:50;21.20;99.90
23748;DHT22;12054;53.662;10.126;2023-07-30T15:18:16;21.20;99.90